Time;durP1;ratioP1;P1;durP2;ratioP2;P2;SDS_P1;SDS_P2;PMS_P1;PMS_P2;Temp;Humidity;BMP_temperature;BMP_pressure;BME280_temperature;BME280_humidity;BME280_pressure;Samples;Min_cycle;Max_cycle;Signal;HPM_P1;HPM_P2
2022/05/12 00:00:20;;;;;;;3.60;3.13;;;;;;;18.93;50.15;99656.66;4994705;28;20463;-77
2022/05/12 00:02:46;;;;;;;3.22;2.90;;;;;;;18.87;50.42;99658.06;4994807;28;20018;-77
2022/05/12 00:05:14;;;;;;;3.30;2.90;;;;;;;18.84;50.55;99651.31;4994305;28;20033;-76
2022/05/12 00:07:40;;;;;;;3.78;3.17;;;;;;;18.90;50.35;99651.97;4977283;28;20026;-77
2022/05/12 00:10:08;;;;;;;4.78;3.67;;;;;;;18.86;50.41;99645.75;4977507;28;20030;-76
2022/05/12 00:12:42;;;;;;;4.68;2.63;;;;;;;18.83;50.74;99649.75;4995646;28;20097;-76
2022/05/12 00:15:12;;;;;;;4.57;3.10;;;;;;;18.79;51.15;99655.06;4994473;28;20041;-77
2022/05/12 00:17:39;;;;;;;3.35;3.05;;;;;;;18.66;51.53;99637.72;4977533;28;20052;-77
2022/05/12 00:20:06;;;;;;;7.63;3.15;;;;;;;18.75;51.28;99656.69;4993754;28;20038;-77
2022/05/12 00:22:32;;;;;;;2.83;2.63;;;;;;;18.73;51.61;99647.84;4993359;28;20597;-78
2022/05/12 00:24:58;;;;;;;2.72;2.40;;;;;;;18.61;51.87;99650.13;4994819;28;20070;-77
2022/05/12 00:27:23;;;;;;;4.70;3.35;;;;;;;18.57;51.75;99646.03;4995020;28;20105;-77
2022/05/12 00:29:50;;;;;;;3.85;3.08;;;;;;;18.54;51.95;99650.81;4994606;28;20053;-77
2022/05/12 00:32:16;;;;;;;3.40;2.90;;;;;;;18.58;51.91;99645.47;4995461;28;20022;-77
2022/05/12 00:34:42;;;;;;;3.25;2.80;;;;;;;18.55;52.13;99643.69;5003073;28;20053;-76
2022/05/12 00:37:08;;;;;;;4.20;2.90;;;;;;;18.60;52.23;99644.94;5003128;28;20073;-75
2022/05/12 00:39:36;;;;;;;5.43;3.13;;;;;;;18.66;52.00;99645.59;5015521;28;20387;-77
2022/05/12 00:42:03;;;;;;;9.20;3.10;;;;;;;18.60;52.40;99631.25;5000018;28;20041;-77
2022/05/12 00:44:28;;;;;;;3.72;3.13;;;;;;;18.72;52.28;99641.28;4999476;28;20521;-76
2022/05/12 00:46:55;;;;;;;5.50;3.70;;;;;;;18.65;52.49;99632.53;4998345;28;20038;-78
2022/05/12 00:49:34;;;;;;;3.20;2.75;;;;;;;18.66;52.89;99639.81;4997454;28;20014;-75
2022/05/12 00:52:21;;;;;;;4.72;3.55;;;;;;;18.72;52.75;99649.94;5009160;28;20030;-77
2022/05/12 00:55:09;;;;;;;3.65;3.03;;;;;;;18.60;53.36;99647.81;4994516;28;20043;-77
2022/05/12 00:57:41;;;;;;;3.95;3.20;;;;;;;18.49;53.62;99637.22;4980006;28;20038;-77
2022/05/12 01:00:10;;;;;;;3.90;3.20;;;;;;;18.50;53.81;99636.66;4994649;28;20038;-78
2022/05/12 01:02:45;;;;;;;5.80;4.18;;;;;;;18.48;54.10;99633.56;4994338;28;20121;-77
2022/05/12 01:05:12;;;;;;;8.38;3.15;;;;;;;18.44;53.97;99638.09;4976610;28;20022;-77
2022/05/12 01:07:37;;;;;;;6.05;3.13;;;;;;;18.49;53.43;99632.22;4976875;28;20402;-76
2022/05/12 01:10:09;;;;;;;3.88;3.35;;;;;;;18.51;54.55;99638.22;4992484;28;20026;-76
2022/05/12 01:12:55;;;;;;;4.05;3.22;;;;;;;18.56;54.10;99630.81;4992255;28;20027;-76
2022/05/12 01:15:24;;;;;;;4.28;3.20;;;;;;;18.59;54.08;99628.94;4990884;28;20510;-77
2022/05/12 01:18:10;;;;;;;3.15;2.85;;;;;;;18.65;54.27;99632.53;4977543;28;20043;-77
2022/05/12 01:20:37;;;;;;;5.28;3.22;;;;;;;18.71;53.81;99630.28;4998141;28;20022;-77
2022/05/12 01:23:30;;;;;;;4.78;3.40;;;;;;;18.85;53.43;99629.75;4996814;28;20032;-77
2022/05/12 01:26:17;;;;;;;3.90;2.45;;;;;;;18.87;53.11;99630.00;4972531;28;20034;-77
2022/05/12 01:28:43;;;;;;;6.20;3.10;;;;;;;19.01;52.85;99636.53;4980383;28;20543;-75
2022/05/12 01:31:16;;;;;;;5.60;3.42;;;;;;;18.85;53.11;99634.75;4997676;28;20030;-76
2022/05/12 01:33:42;;;;;;;3.40;3.10;;;;;;;18.87;52.98;99620.56;4980400;28;20089;-77
2022/05/12 01:36:08;;;;;;;5.25;3.45;;;;;;;18.91;53.06;99626.75;4997669;28;20030;-76
2022/05/12 01:38:33;;;;;;;3.65;2.90;;;;;;;18.79;53.42;99631.22;4980032;28;20148;-76
2022/05/12 01:40:59;;;;;;;4.25;3.45;;;;;;;18.87;53.19;99621.34;4998124;28;20045;-76
2022/05/12 01:43:26;;;;;;;3.80;3.40;;;;;;;18.85;53.48;99626.88;4996873;28;20030;-76
2022/05/12 01:45:52;;;;;;;4.55;3.25;;;;;;;18.76;53.49;99641.72;4997565;28;20050;-76
2022/05/12 01:48:19;;;;;;;5.60;4.38;;;;;;;18.77;53.47;99642.50;4996326;28;20487;-76
2022/05/12 01:50:46;;;;;;;4.00;2.83;;;;;;;18.71;53.94;99633.94;4979794;28;20151;-76
2022/05/12 01:53:15;;;;;;;5.10;3.22;;;;;;;18.70;53.83;99628.75;4996127;28;20113;-78
2022/05/12 01:55:43;;;;;;;3.88;2.90;;;;;;;18.78;53.59;99630.44;4979773;28;20518;-76
2022/05/12 01:58:17;;;;;;;4.00;3.40;;;;;;;18.65;54.10;99633.28;4995854;28;20038;-78
2022/05/12 02:00:43;;;;;;;4.22;3.10;;;;;;;18.62;54.35;99627.84;4979905;28;20062;-78
2022/05/12 02:03:10;;;;;;;4.43;3.35;;;;;;;18.63;54.30;99638.84;4996207;28;20104;-76
2022/05/12 02:05:38;;;;;;;5.15;3.22;;;;;;;18.69;54.16;99627.97;4996953;28;20467;-75
2022/05/12 02:08:07;;;;;;;3.60;3.00;;;;;;;18.66;54.14;99625.41;4995875;28;20042;-77
2022/05/12 02:10:37;;;;;;;3.85;2.72;;;;;;;18.60;54.28;99633.41;4995911;28;20034;-76
2022/05/12 02:13:12;;;;;;;5.25;3.58;;;;;;;18.52;54.67;99639.78;4996059;28;20042;-77
2022/05/12 02:15:39;;;;;;;3.08;2.78;;;;;;;18.53;54.38;99629.00;4996098;28;20037;-76
2022/05/12 02:18:05;;;;;;;3.38;3.00;;;;;;;18.47;54.62;99631.22;4995609;28;20034;-76
2022/05/12 02:20:39;;;;;;;4.50;3.40;;;;;;;18.41;54.72;99628.41;4979426;28;20467;-77
2022/05/12 02:23:06;;;;;;;4.00;3.10;;;;;;;18.36;55.01;99637.94;4997147;28;20109;-77
2022/05/12 02:25:32;;;;;;;3.55;3.10;;;;;;;18.39;55.00;99633.19;4996075;28;20030;-77
2022/05/12 02:27:58;;;;;;;6.72;3.40;;;;;;;18.37;55.15;99633.75;4996901;28;20096;-77
2022/05/12 02:30:34;;;;;;;3.85;3.33;;;;;;;18.30;55.12;99630.72;4995530;28;20388;-77
2022/05/12 02:33:01;;;;;;;4.00;3.38;;;;;;;18.28;55.41;99628.38;4989546;28;20074;-77
2022/05/12 02:35:28;;;;;;;3.92;3.50;;;;;;;18.24;55.40;99625.06;4963205;28;20065;-75
2022/05/12 02:38:03;;;;;;;4.60;3.25;;;;;;;18.20;55.56;99623.81;4996354;28;20026;-77
2022/05/12 02:40:28;;;;;;;3.85;3.15;;;;;;;18.18;55.58;99635.13;4995272;28;20037;-77
2022/05/12 02:42:55;;;;;;;4.07;3.10;;;;;;;18.12;55.82;99626.56;4995453;28;20026;-76
2022/05/12 02:45:21;;;;;;;3.50;3.20;;;;;;;18.16;55.46;99618.34;4963288;28;20037;-75
2022/05/12 02:47:46;;;;;;;3.83;2.90;;;;;;;18.11;55.74;99619.22;4979199;28;20109;-76
2022/05/12 02:50:13;;;;;;;3.55;2.72;;;;;;;18.16;55.71;99617.56;4997062;28;20454;-76
2022/05/12 02:52:39;;;;;;;4.85;2.63;;;;;;;18.19;55.16;99619.38;4995663;28;20090;-77
2022/05/12 02:55:06;;;;;;;3.63;3.17;;;;;;;18.27;55.13;99621.06;4996091;28;20096;-76
2022/05/12 02:57:32;;;;;;;4.43;3.20;;;;;;;18.35;54.95;99619.09;4995290;28;20490;-75
2022/05/12 02:59:57;;;;;;;2.92;2.63;;;;;;;18.47;54.08;99623.34;4995767;28;20399;-78
2022/05/12 03:02:23;;;;;;;3.35;3.05;;;;;;;18.62;54.03;99624.94;4996104;28;20460;-75
2022/05/12 03:04:49;;;;;;;4.53;3.00;;;;;;;18.76;53.59;99621.53;4994249;28;20034;-76
2022/05/12 03:07:15;;;;;;;3.15;2.50;;;;;;;18.86;53.27;99625.53;4994634;28;20033;-78
2022/05/12 03:09:41;;;;;;;4.53;3.13;;;;;;;18.95;52.97;99624.31;4994672;28;20030;-77
2022/05/12 03:12:07;;;;;;;3.35;2.83;;;;;;;18.86;52.88;99619.78;4978211;28;20413;-77
2022/05/12 03:14:34;;;;;;;6.18;3.63;;;;;;;19.07;52.65;99619.13;4994850;28;20395;-77
2022/05/12 03:17:00;;;;;;;3.85;3.17;;;;;;;19.15;52.35;99623.66;4993715;28;20423;-76
2022/05/12 03:19:25;;;;;;;3.35;3.05;;;;;;;19.19;52.13;99620.47;4995621;28;20116;-77
2022/05/12 03:21:51;;;;;;;3.83;3.25;;;;;;;19.14;52.38;99624.22;4994647;28;20379;-77
2022/05/12 03:24:18;;;;;;;4.75;3.30;;;;;;;19.22;51.90;99628.00;4994673;28;20038;-78
2022/05/12 03:26:45;;;;;;;2.95;2.70;;;;;;;19.25;52.32;99621.88;4994287;28;20391;-77
2022/05/12 03:29:11;;;;;;;4.13;2.40;;;;;;;19.19;52.13;99626.22;4992067;28;20125;-77
2022/05/12 03:31:37;;;;;;;4.03;2.92;;;;;;;19.25;52.14;99627.66;4994167;28;20030;-77
2022/05/12 03:34:05;;;;;;;3.20;2.63;;;;;;;19.33;51.91;99622.00;4995573;28;20080;-76
2022/05/12 03:36:35;;;;;;;4.32;3.25;;;;;;;19.30;52.15;99620.22;4995790;28;20364;-76
2022/05/12 03:39:07;;;;;;;3.70;3.03;;;;;;;19.31;52.46;99624.66;4995435;28;20058;-77
2022/05/12 03:41:34;;;;;;;3.85;3.00;;;;;;;19.30;52.67;99631.75;4993782;28;20038;-77
2022/05/12 03:47:02;;;;;;;;;;;;;;;19.31;52.04;99633.31;4974353;28;20117;-78
2022/05/12 03:49:28;;;;;;;2.92;2.63;;;;;;;19.29;52.04;99628.09;4973831;28;19916;-76
2022/05/12 03:51:54;;;;;;;3.20;2.90;;;;;;;19.33;52.17;99625.66;4973663;28;20023;-79
2022/05/12 03:54:20;;;;;;;2.70;2.50;;;;;;;19.31;52.18;99622.53;4957577;28;20406;-76
2022/05/12 03:56:46;;;;;;;3.47;2.95;;;;;;;19.38;52.08;99621.88;4975013;28;20428;-76
2022/05/12 03:59:12;;;;;;;4.10;3.17;;;;;;;19.30;52.87;99635.44;4974485;28;20043;-76
2022/05/12 04:01:38;;;;;;;3.60;3.28;;;;;;;19.36;52.24;99627.44;4958356;28;20050;-77
2022/05/12 04:04:04;;;;;;;3.70;3.08;;;;;;;19.43;52.24;99628.88;4974534;28;20042;-76
2022/05/12 04:06:30;;;;;;;3.97;2.90;;;;;;;19.48;51.92;99624.34;4974236;28;20475;-77
2022/05/12 04:08:57;;;;;;;3.67;3.13;;;;;;;19.65;51.51;99619.75;4975820;28;20062;-77
2022/05/12 04:11:23;;;;;;;2.95;2.65;;;;;;;19.67;51.45;99622.84;4974377;28;20103;-77
2022/05/12 04:13:50;;;;;;;3.92;3.10;;;;;;;19.70;51.16;99624.63;4975626;28;20073;-76
2022/05/12 04:16:15;;;;;;;4.55;3.00;;;;;;;19.82;50.73;99622.25;4975045;28;20047;-76
2022/05/12 04:18:42;;;;;;;4.95;3.25;;;;;;;19.88;50.45;99627.91;4975336;28;20157;-77
2022/05/12 04:21:09;;;;;;;9.00;3.03;;;;;;;20.06;50.57;99624.84;4975051;28;20034;-78
2022/05/12 04:23:35;;;;;;;3.25;2.83;;;;;;;20.15;49.81;99630.13;4957560;28;20169;-77
2022/05/12 04:26:02;;;;;;;3.47;2.78;;;;;;;20.32;49.53;99638.44;4974038;28;20031;-76
2022/05/12 04:28:30;;;;;;;3.15;2.85;;;;;;;20.51;49.13;99644.03;4973659;28;20030;-77
2022/05/12 04:30:57;;;;;;;5.20;2.88;;;;;;;20.68;48.81;99635.66;4975787;28;20028;-76
2022/05/12 04:36:06;;;;;;;3.97;3.28;;;;;;;20.75;48.91;99645.75;4975726;28;20093;-78
2022/05/12 04:38:33;;;;;;;4.95;2.45;;;;;;;20.79;48.88;99644.06;4998045;28;20087;-77
2022/05/12 04:41:00;;;;;;;3.28;2.75;;;;;;;20.77;48.91;99646.75;4981496;28;20046;-77
2022/05/12 04:43:27;;;;;;;3.38;2.88;;;;;;;20.85;48.67;99641.81;4997539;28;20081;-76
2022/05/12 04:45:53;;;;;;;3.20;2.90;;;;;;;20.86;48.52;99645.47;4996589;28;20037;-78
2022/05/12 04:48:19;;;;;;;5.93;2.88;;;;;;;21.04;48.36;99647.34;4992938;28;20050;-77
2022/05/12 04:50:45;;;;;;;3.50;2.92;;;;;;;21.16;48.10;99645.72;4980603;28;20469;-78
2022/05/12 04:53:11;;;;;;;3.72;2.50;;;;;;;21.29;47.78;99648.50;4976703;28;20456;-76
2022/05/12 04:55:38;;;;;;;7.88;3.28;;;;;;;21.35;47.87;99645.44;4978516;28;20053;-78
2022/05/12 04:58:05;;;;;;;6.30;3.63;;;;;;;21.45;47.80;99653.06;4980940;28;20113;-76
2022/05/12 05:00:35;;;;;;;4.15;2.90;;;;;;;21.49;47.59;99652.69;4979956;28;20379;-80
2022/05/12 05:03:02;;;;;;;3.40;2.67;;;;;;;21.53;47.56;99659.66;4982601;28;20053;-82
2022/05/12 05:05:28;;;;;;;5.68;2.88;;;;;;;21.70;47.45;99647.56;4964286;28;20037;-81
2022/05/12 05:07:55;;;;;;;4.78;2.63;;;;;;;21.96;46.57;99656.00;4981229;28;20096;-80
2022/05/12 05:10:21;;;;;;;5.90;3.25;;;;;;;22.40;46.43;99659.59;4977775;28;20465;-82
2022/05/12 05:12:48;;;;;;;5.20;3.25;;;;;;;22.60;45.47;99672.38;4977589;28;20053;-78
2022/05/12 05:15:14;;;;;;;4.70;3.13;;;;;;;22.74;45.75;99688.31;4980107;28;20049;-78
2022/05/12 05:17:42;;;;;;;3.85;2.40;;;;;;;22.84;45.97;99696.47;4982074;28;20078;-81
2022/05/12 05:20:12;;;;;;;3.38;3.08;;;;;;;23.07;45.30;99697.25;4963784;28;20047;-81
2022/05/12 05:22:38;;;;;;;6.93;3.90;;;;;;;23.33;44.96;99699.75;4980501;28;20491;-81
2022/05/12 05:25:06;;;;;;;4.80;3.40;;;;;;;23.46;44.56;99710.41;4980749;28;20089;-79
2022/05/12 05:27:31;;;;;;;4.10;3.20;;;;;;;23.39;44.16;99716.97;4981378;28;20050;-80
2022/05/12 05:29:58;;;;;;;3.42;2.90;;;;;;;23.66;43.09;99715.19;4969359;28;20528;-79
2022/05/12 05:32:24;;;;;;;6.30;2.67;;;;;;;23.85;43.68;99709.72;4961826;28;20037;-79
2022/05/12 05:34:50;;;;;;;6.00;3.50;;;;;;;23.88;43.33;99708.53;4960636;28;20035;-78
2022/05/12 05:37:17;;;;;;;3.75;3.15;;;;;;;23.96;43.47;99720.16;4959120;28;20106;-80
2022/05/12 05:39:48;;;;;;;3.83;3.00;;;;;;;23.88;42.77;99722.31;4958303;28;20035;-78
2022/05/12 05:42:16;;;;;;;4.60;3.35;;;;;;;23.71;41.83;99707.63;4958713;28;20030;-79
2022/05/12 05:44:41;;;;;;;4.05;2.80;;;;;;;23.72;43.13;99718.69;4970278;28;20049;-79
2022/05/12 05:47:07;;;;;;;10.85;2.90;;;;;;;23.74;41.66;99721.75;4956854;28;20034;-81
2022/05/12 05:49:34;;;;;;;6.32;2.90;;;;;;;23.53;41.45;99707.47;4972935;28;20039;-80
2022/05/12 05:54:43;;;;;;;5.68;2.83;;;;;;;23.40;42.94;99715.59;4974700;28;20057;-80
2022/05/12 05:57:09;;;;;;;3.85;2.67;;;;;;;23.45;42.92;99732.88;4974434;28;20372;-80
2022/05/12 05:59:35;;;;;;;7.82;2.65;;;;;;;23.46;42.51;99736.56;4975987;28;20033;-79
2022/05/12 06:02:01;;;;;;;2.95;2.50;;;;;;;23.51;42.08;99744.31;4974424;28;20081;-80
2022/05/12 06:04:27;;;;;;;7.32;3.42;;;;;;;23.56;42.56;99740.44;4975436;28;20035;-80
2022/05/12 06:06:54;;;;;;;2.40;2.20;;;;;;;23.52;41.92;99754.59;4976502;28;20104;-81
2022/05/12 06:09:20;;;;;;;8.27;2.88;;;;;;;23.66;42.06;99747.19;4961228;28;20049;-81
2022/05/12 06:11:46;;;;;;;3.58;2.67;;;;;;;23.65;41.82;99754.38;4979786;28;20041;-80
2022/05/12 06:14:12;;;;;;;5.60;2.67;;;;;;;23.76;41.32;99759.78;4967508;28;20026;-77
2022/05/12 06:16:38;;;;;;;3.40;2.25;;;;;;;23.81;41.18;99767.53;4947429;28;20034;-79
2022/05/12 06:19:06;;;;;;;5.07;2.70;;;;;;;23.81;41.72;99763.84;4954972;28;20031;-77
2022/05/12 06:21:34;;;;;;;6.32;2.90;;;;;;;23.82;40.89;99754.53;4977956;28;20038;-79
2022/05/12 06:23:59;;;;;;;3.83;2.75;;;;;;;24.10;41.34;99768.03;4970747;28;20488;-77
2022/05/12 06:26:25;;;;;;;3.80;3.03;;;;;;;24.32;40.90;99775.16;4975748;28;20023;-78
2022/05/12 06:28:51;;;;;;;6.32;2.83;;;;;;;24.72;40.23;99778.03;4976562;28;20392;-79
2022/05/12 06:31:24;;;;;;;4.75;2.90;;;;;;;25.60;37.02;99758.97;4976202;28;20086;-77
2022/05/12 06:33:50;;;;;;;3.67;2.53;;;;;;;27.31;35.80;99768.81;4975810;28;20042;-78
2022/05/12 06:36:16;;;;;;;3.13;2.50;;;;;;;28.92;31.69;99776.03;4977451;28;20455;-84
2022/05/12 06:38:41;;;;;;;4.45;2.25;;;;;;;30.20;29.89;99771.19;4979706;28;20456;-84
2022/05/12 06:41:06;;;;;;;2.78;2.15;;;;;;;31.30;28.30;99771.19;4977347;28;20037;-84
2022/05/12 06:43:33;;;;;;;2.53;2.22;;;;;;;32.42;27.19;99781.78;4976564;28;20062;-83
2022/05/12 06:45:59;;;;;;;3.83;1.98;;;;;;;32.90;25.22;99781.72;4975608;28;20038;-78
2022/05/12 06:48:25;;;;;;;2.45;1.92;;;;;;;33.29;24.83;99778.78;4976636;28;20042;-78
2022/05/12 06:50:51;;;;;;;6.10;2.30;;;;;;;33.95;23.93;99783.09;4976726;28;20391;-77
2022/05/12 06:53:16;;;;;;;3.70;2.55;;;;;;;34.57;21.90;99779.69;4975125;28;20105;-77
2022/05/12 06:55:42;;;;;;;6.18;2.75;;;;;;;35.28;21.26;99778.06;4957704;28;20108;-75
2022/05/12 06:58:09;;;;;;;13.13;2.38;;;;;;;35.93;20.38;99787.78;4975418;28;20181;-79
2022/05/12 07:00:34;;;;;;;17.30;2.70;;;;;;;36.30;19.10;99783.50;4968971;28;20062;-80
2022/05/12 07:03:00;;;;;;;7.80;1.70;;;;;;;35.82;19.43;99782.09;4961507;28;20124;-76
2022/05/12 07:05:26;;;;;;;3.70;1.63;;;;;;;35.61;20.22;99786.28;4965215;28;20384;-77
2022/05/12 07:07:53;;;;;;;25.58;3.17;;;;;;;35.68;19.53;99794.03;4967796;28;20085;-76
2022/05/12 07:10:20;;;;;;;6.07;1.25;;;;;;;35.93;19.73;99808.53;4958385;28;20535;-75
2022/05/12 07:12:47;;;;;;;15.93;2.67;;;;;;;35.68;20.04;99811.84;4976043;28;20105;-78
2022/05/12 07:15:13;;;;;;;4.47;1.58;;;;;;;36.25;18.49;99826.31;4974018;28;20421;-77
2022/05/12 07:17:39;;;;;;;8.30;1.70;;;;;;;35.23;19.13;99826.69;4955519;28;20935;-76
2022/05/12 07:28:19;;;;;;;9.43;2.13;;;;;;;36.50;18.68;99837.03;4975624;28;20510;-86
2022/05/12 07:31:03;;;;;;;5.63;1.45;;;;;;;36.76;17.64;99841.91;4958782;28;20489;-82
2022/05/12 07:33:34;;;;;;;3.92;1.73;;;;;;;37.44;17.43;99836.56;4962238;28;20037;-76
2022/05/12 07:36:00;;;;;;;7.20;1.80;;;;;;;37.76;16.85;99843.03;4958139;28;20035;-76
2022/05/12 07:38:27;;;;;;;5.93;1.92;;;;;;;38.33;17.06;99842.97;4958289;28;20041;-78
2022/05/12 07:40:53;;;;;;;4.45;1.65;;;;;;;38.23;16.88;99854.50;4974198;28;20089;-77
2022/05/12 07:43:19;;;;;;;6.63;1.88;;;;;;;37.60;17.17;99849.88;4974404;28;20023;-80
2022/05/12 07:45:44;;;;;;;9.32;2.63;;;;;;;37.96;17.10;99874.31;4942684;28;20030;-79
2022/05/12 07:48:11;;;;;;;6.75;2.47;;;;;;;37.73;17.96;99886.03;4976299;28;20022;-78
2022/05/12 07:50:39;;;;;;;12.07;2.90;;;;;;;38.03;18.44;99890.22;4975849;28;20031;-73
2022/05/12 07:53:04;;;;;;;4.47;2.50;;;;;;;38.77;17.45;99882.53;4972638;28;20074;-74
2022/05/12 07:55:29;;;;;;;6.68;3.22;;;;;;;39.09;18.11;99898.53;4989594;28;20082;-77
2022/05/12 07:57:55;;;;;;;6.05;2.80;;;;;;;39.69;16.28;99896.81;4994511;28;20030;-75
2022/05/12 08:00:21;;;;;;;3.28;2.60;;;;;;;39.17;16.92;99910.00;4994452;28;20050;-74
2022/05/12 08:02:46;;;;;;;3.67;2.10;;;;;;;39.63;16.73;99902.56;4994012;28;20022;-76
2022/05/12 08:05:12;;;;;;;3.90;2.78;;;;;;;39.98;15.82;99919.34;4993097;28;20118;-76
2022/05/12 08:07:38;;;;;;;6.90;2.85;;;;;;;39.93;16.08;99928.88;4994403;28;20567;-76
2022/05/12 08:10:05;;;;;;;4.18;3.10;;;;;;;39.98;16.54;99931.28;4993252;28;20026;-76
2022/05/12 08:12:31;;;;;;;3.30;1.92;;;;;;;39.48;16.38;99938.59;4992878;28;20460;-79
2022/05/12 08:14:56;;;;;;;5.32;2.70;;;;;;;39.19;16.62;99921.97;4993392;28;20083;-75
2022/05/12 08:17:22;;;;;;;5.15;2.78;;;;;;;38.65;16.79;99939.44;4995258;28;20022;-74
2022/05/12 08:19:47;;;;;;;9.52;4.05;;;;;;;39.20;17.39;99956.28;4993014;28;20026;-76
2022/05/12 08:22:13;;;;;;;5.07;2.50;;;;;;;38.97;17.13;99954.78;4993463;28;20026;-77
2022/05/12 08:24:38;;;;;;;4.97;2.88;;;;;;;38.08;17.84;99954.41;4993273;28;20423;-76
2022/05/12 08:27:04;;;;;;;5.40;2.87;;;;;;;38.30;17.83;99945.53;4994055;28;20037;-76
2022/05/12 08:29:29;;;;;;;6.55;3.58;;;;;;;38.68;18.79;99949.22;4995157;28;20281;-75
2022/05/12 08:31:54;;;;;;;7.93;3.03;;;;;;;38.41;17.38;99966.09;4992151;28;20114;-76
2022/05/12 08:34:20;;;;;;;3.67;2.58;;;;;;;38.31;18.37;99961.97;4961354;28;20030;-78
2022/05/12 08:36:45;;;;;;;23.42;3.35;;;;;;;38.50;17.46;99973.13;4970129;28;20026;-76
2022/05/12 08:39:11;;;;;;;9.32;3.38;;;;;;;37.41;18.42;99971.69;4981501;28;20030;-77
2022/05/12 08:41:43;;;;;;;3.75;2.17;;;;;;;37.32;18.78;99985.44;4999881;28;20022;-79
2022/05/12 08:44:14;;;;;;;6.63;2.85;;;;;;;36.46;19.44;100006.06;4968711;28;20038;-86
2022/05/12 08:46:49;;;;;;;10.57;3.88;;;;;;;34.93;20.80;100005.84;4957422;28;20030;-75
2022/05/12 08:49:31;;;;;;;8.45;3.00;;;;;;;35.21;20.86;100000.63;4957058;28;20081;-76
2022/05/12 08:52:18;;;;;;;5.53;2.05;;;;;;;35.21;20.92;100003.59;4942186;28;20107;-75
2022/05/12 08:54:54;;;;;;;7.82;2.03;;;;;;;35.67;20.95;99999.28;4986930;28;20068;-74
2022/05/12 08:57:35;;;;;;;5.55;2.17;;;;;;;35.38;21.09;99994.84;4993330;28;20121;-81
2022/05/12 09:00:06;;;;;;;16.63;3.58;;;;;;;35.47;20.78;99984.94;4995985;28;20071;-79
2022/05/12 09:03:07;;;;;;;5.30;2.10;;;;;;;34.24;21.71;100020.59;4992348;28;20112;-79
2022/05/12 09:05:37;;;;;;;2.15;1.67;;;;;;;34.02;23.28;100007.50;4962787;28;20380;-78
2022/05/12 09:09:10;;;;;;;5.67;2.33;;;;;;;33.95;22.84;100035.16;4946278;28;20479;-84
2022/05/12 09:11:51;;;;;;;8.57;2.42;;;;;;;33.47;22.61;100027.19;4901356;29;20111;-78
2022/05/12 09:14:18;;;;;;;;;;;;;;;33.38;23.90;100037.00;4909684;29;20025;-79
2022/05/12 09:16:44;;;;;;;43.92;5.45;;;;;;;33.19;22.70;100046.19;4946745;28;19956;-76
2022/05/12 09:19:14;;;;;;;5.78;2.00;;;;;;;32.67;24.02;100038.53;4965623;28;20025;-75
2022/05/12 09:21:40;;;;;;;4.43;1.65;;;;;;;32.10;24.43;100028.22;4968506;28;20072;-78
2022/05/12 09:24:07;;;;;;;4.25;1.83;;;;;;;31.62;24.87;100056.06;4947958;28;20488;-75
2022/05/12 09:26:48;;;;;;;12.85;2.10;;;;;;;30.84;26.08;100066.84;4980140;28;20064;-80
2022/05/12 09:29:30;;;;;;;6.28;1.80;;;;;;;31.30;26.19;100071.50;4957188;28;20019;-75
2022/05/12 09:32:02;;;;;;;6.88;2.03;;;;;;;30.98;26.21;100070.03;4974177;28;20030;-76
2022/05/12 09:34:47;;;;;;;13.35;2.40;;;;;;;29.92;27.26;100084.38;4973809;28;20038;-75
2022/05/12 09:37:13;;;;;;;3.95;1.60;;;;;;;30.11;27.07;100078.44;4940803;28;20038;-77
2022/05/12 09:39:40;;;;;;;3.47;1.73;;;;;;;30.14;27.55;100073.50;4981396;28;20126;-77
2022/05/12 09:42:11;;;;;;;5.90;1.70;;;;;;;30.34;27.30;100084.53;4980196;28;20277;-77
2022/05/12 09:44:36;;;;;;;8.90;1.95;;;;;;;30.56;26.33;100096.41;4979999;28;20029;-81
2022/05/12 09:47:05;;;;;;;19.08;2.80;;;;;;;30.90;26.06;100090.03;4980992;28;20112;-81
2022/05/12 09:49:38;;;;;;;10.10;2.08;;;;;;;31.12;25.71;100108.50;4998473;28;20022;-79
2022/05/12 09:52:21;;;;;;;7.28;1.52;;;;;;;30.76;24.60;100110.41;4997121;28;20026;-78
2022/05/12 09:54:47;;;;;;;62.47;7.00;;;;;;;30.49;24.87;100097.38;5000920;28;20047;-79
2022/05/12 09:57:17;;;;;;;9.27;1.27;;;;;;;29.68;26.07;100092.13;4998566;28;20414;-78
2022/05/12 09:59:44;;;;;;;7.57;1.60;;;;;;;29.38;26.13;100108.19;4997874;28;20072;-78
2022/05/12 10:07:53;;;;;;;12.07;1.52;;;;;;;28.89;26.63;100115.38;4963875;28;20026;-81
2022/05/12 10:08:25;;;;;;;1.65;0.88;;;;;;;28.36;27.97;100122.09;4981486;28;20041;-77
2022/05/12 10:11:02;;;;;;;6.60;0.82;;;;;;;28.22;28.71;100121.69;4977936;28;20034;-77
2022/05/12 10:13:34;;;;;;;7.75;1.17;;;;;;;28.20;28.34;100114.91;4983122;28;20093;-80
2022/05/12 10:16:00;;;;;;;20.05;1.58;;;;;;;28.04;28.27;100137.75;4967331;28;20061;-78
2022/05/12 10:18:38;;;;;;;12.20;2.83;;;;;;;27.84;27.70;100104.63;4979833;28;20022;-77
2022/05/12 10:21:14;;;;;;;4.93;1.10;;;;;;;27.49;28.00;100138.25;4960468;28;20050;-76
2022/05/12 10:23:43;;;;;;;13.40;1.35;;;;;;;27.27;28.46;100133.41;4960666;28;20034;-79
2022/05/12 10:26:20;;;;;;;4.30;1.05;;;;;;;27.42;28.95;100142.78;4961298;28;20022;-79
2022/05/12 10:29:07;;;;;;;21.33;2.20;;;;;;;27.14;28.42;100125.72;4952135;28;20023;-78
2022/05/12 10:31:36;;;;;;;10.25;2.10;;;;;;;26.92;28.83;100170.59;4949834;28;20494;-79
2022/05/12 10:34:04;;;;;;;18.95;2.22;;;;;;;26.60;28.89;100151.72;4979496;28;20551;-81
2022/05/12 10:36:55;;;;;;;3.00;0.85;;;;;;;26.43;29.26;100153.81;4978152;28;20058;-80
2022/05/12 10:39:41;;;;;;;6.20;1.10;;;;;;;26.11;30.45;100140.72;4976909;28;20033;-78
2022/05/12 10:42:30;;;;;;;7.72;2.17;;;;;;;25.89;29.43;100141.63;4959505;28;20034;-78
2022/05/12 10:45:22;;;;;;;3.08;0.95;;;;;;;26.13;29.86;100143.06;4996381;28;20026;-79
2022/05/12 10:48:27;;;;;;;6.03;1.27;;;;;;;26.29;29.85;100147.47;4985211;28;20046;-80
2022/05/12 10:51:04;;;;;;;33.90;3.17;;;;;;;26.25;28.25;100172.63;4974561;28;20395;-80
2022/05/12 10:53:57;;;;;;;10.95;1.02;;;;;;;26.47;29.56;100154.94;4962568;28;20074;-79
2022/05/12 10:56:31;;;;;;;7.82;0.75;;;;;;;26.43;28.92;100160.41;4978860;28;20050;-80
2022/05/12 10:59:05;;;;;;;10.85;1.30;;;;;;;26.18;27.77;100169.13;4978554;28;20502;-79
2022/05/12 11:02:23;;;;;;;4.00;0.70;;;;;;;25.86;28.70;100174.13;4995956;28;20054;-79
2022/05/12 11:05:14;;;;;;;3.55;0.88;;;;;;;25.57;29.02;100162.75;4946812;28;20074;-79
2022/05/12 11:07:50;;;;;;;4.20;1.02;;;;;;;25.30;29.55;100173.31;4978984;28;20046;-81
2022/05/12 11:10:29;;;;;;;6.55;0.93;;;;;;;24.99;30.39;100178.41;4978912;28;20037;-79
2022/05/12 11:13:19;;;;;;;3.72;0.63;;;;;;;25.18;30.44;100183.81;4978655;28;20030;-84
2022/05/12 11:15:57;;;;;;;7.10;1.45;;;;;;;25.08;30.53;100159.53;4995896;28;20496;-81
2022/05/12 11:18:45;;;;;;;22.33;1.70;;;;;;;25.42;29.58;100186.09;4996104;28;20081;-81
2022/05/12 11:21:27;;;;;;;7.38;0.80;;;;;;;25.55;29.67;100188.84;4995732;28;20030;-78
2022/05/12 11:24:14;;;;;;;4.70;0.68;;;;;;;25.57;29.88;100197.78;4995555;28;20030;-77
2022/05/12 11:27:15;;;;;;;6.25;1.25;;;;;;;25.46;29.38;100203.22;4979698;28;20034;-84
2022/05/12 11:29:59;;;;;;;7.85;1.30;;;;;;;25.61;30.26;100186.47;4955714;28;20061;-81
2022/05/12 11:32:33;;;;;;;10.15;2.40;;;;;;;25.87;29.23;100196.91;4978078;28;20026;-80
2022/05/12 11:35:09;;;;;;;2.42;0.70;;;;;;;25.59;28.49;100197.97;4997230;28;20033;-81
2022/05/12 11:37:37;;;;;;;3.25;0.90;;;;;;;25.47;29.71;100204.75;4961203;28;20041;-81
2022/05/12 11:40:08;;;;;;;6.57;0.80;;;;;;;25.23;28.96;100197.41;4979231;28;20061;-79
2022/05/12 11:45:42;;;;;;;3.42;0.50;;;;;;;25.32;29.33;100197.59;4982971;28;20115;-81
2022/05/12 11:48:14;;;;;;;2.67;0.80;;;;;;;25.41;29.04;100199.13;4964601;28;20031;-82
2022/05/12 11:50:57;;;;;;;16.45;2.03;;;;;;;25.07;28.67;100217.06;4970394;28;20030;-83
2022/05/12 11:53:25;;;;;;;1.60;0.73;;;;;;;24.93;28.01;100198.22;4983464;28;20022;-82
2022/05/12 11:55:56;;;;;;;8.95;1.20;;;;;;;25.09;26.95;100199.00;4961887;28;20051;-83
2022/05/12 11:58:33;;;;;;;5.53;0.88;;;;;;;25.01;24.83;100206.97;4978309;28;20495;-83
2022/05/12 12:01:00;;;;;;;6.20;0.95;;;;;;;24.89;26.53;100200.75;4975272;28;20035;-82
2022/05/12 12:03:26;;;;;;;4.38;0.60;;;;;;;24.67;26.12;100204.41;4972301;28;20093;-79
2022/05/12 12:05:51;;;;;;;1.88;0.50;;;;;;;24.70;26.42;100214.88;4972348;28;20452;-84
2022/05/12 12:08:32;;;;;;;3.60;0.50;;;;;;;24.59;26.09;100224.00;4973030;28;20035;-84